SUR4101 SACO-SAZN
Flight info
| Callsign | SUR4101 |
|---|---|
| Flight time | 2h 4m |
| Altitude | 25000 |
| Route | SIMES UZ114 OSEKO OSEKO1Q |
| Aircraft | DH8D/M-SDE2E3FGRY/H |
Departure
| Time | 2026-04-27 02:14 |
|---|---|
| Airport | Ingeniero Aeronáutico Ambrosio L.V. Taravella International Airport (SACO) |
Arrival
| Time | 2026-04-27 04:18 |
|---|---|
| Airport | Presidente Perón International Airport (SAZN) |
| Time | Latitude | Longitude | Altitude | Speed | Heading |
|---|---|---|---|---|---|
| 2026-04-27 01:24 | -31.31480 | -64.21173 | 1569 ft | 0 kts | 263° |
| 2026-04-27 01:57 | -31.31480 | -64.21172 | 1569 ft | 1 kts | 266° |
| 2026-04-27 01:58 | -31.31480 | -64.21155 | 1568 ft | 2 kts | 263° |
| 2026-04-27 01:58 | -31.31479 | -64.21142 | 1568 ft | 0 kts | 263° |
| 2026-04-27 01:58 | -31.31475 | -64.21127 | 1568 ft | 2 kts | 239° |
| 2026-04-27 01:58 | -31.31465 | -64.21115 | 1568 ft | 2 kts | 212° |
| 2026-04-27 01:59 | -31.31451 | -64.21109 | 1568 ft | 2 kts | 185° |
| 2026-04-27 01:59 | -31.31440 | -64.21110 | 1568 ft | 1 kts | 167° |
| 2026-04-27 01:59 | -31.31439 | -64.21110 | 1568 ft | 0 kts | 167° |
| 2026-04-27 02:01 | -31.31468 | -64.21102 | 1568 ft | 5 kts | 167° |
| 2026-04-27 02:01 | -31.31491 | -64.21095 | 1567 ft | 2 kts | 167° |
| 2026-04-27 02:02 | -31.31501 | -64.21081 | 1566 ft | 2 kts | 99° |
| 2026-04-27 02:02 | -31.31495 | -64.21065 | 1566 ft | 2 kts | 36° |
| 2026-04-27 02:02 | -31.31478 | -64.21062 | 1567 ft | 3 kts | 352° |
| 2026-04-27 02:02 | -31.31467 | -64.21063 | 1567 ft | 0 kts | 1° |
| 2026-04-27 02:03 | -31.31466 | -64.21063 | 1567 ft | 0 kts | 1° |
| 2026-04-27 02:06 | -31.31459 | -64.21064 | 1567 ft | 1 kts | 337° |
| 2026-04-27 02:06 | -31.31461 | -64.21075 | 1567 ft | 1 kts | 203° |
| 2026-04-27 02:06 | -31.31482 | -64.21078 | 1567 ft | 5 kts | 185° |
| 2026-04-27 02:07 | -31.31540 | -64.21084 | 1565 ft | 9 kts | 185° |
| 2026-04-27 02:07 | -31.31608 | -64.21097 | 1563 ft | 9 kts | 186° |
| 2026-04-27 02:07 | -31.31674 | -64.21097 | 1562 ft | 9 kts | 179° |
| 2026-04-27 02:07 | -31.31744 | -64.21075 | 1560 ft | 10 kts | 146° |
| 2026-04-27 02:08 | -31.31797 | -64.21034 | 1557 ft | 8 kts | 158° |
| 2026-04-27 02:08 | -31.31851 | -64.21027 | 1555 ft | 7 kts | 180° |
| 2026-04-27 02:08 | -31.31904 | -64.21027 | 1553 ft | 7 kts | 179° |
| 2026-04-27 02:08 | -31.31957 | -64.21026 | 1551 ft | 7 kts | 179° |
| 2026-04-27 02:09 | -31.32009 | -64.21026 | 1549 ft | 7 kts | 179° |
| 2026-04-27 02:09 | -31.32054 | -64.21025 | 1548 ft | 5 kts | 179° |
| 2026-04-27 02:09 | -31.32097 | -64.21024 | 1547 ft | 7 kts | 180° |
| 2026-04-27 02:09 | -31.32156 | -64.21024 | 1546 ft | 9 kts | 179° |
| 2026-04-27 02:10 | -31.32229 | -64.21022 | 1544 ft | 9 kts | 179° |
| 2026-04-27 02:10 | -31.32292 | -64.21021 | 1543 ft | 8 kts | 179° |
| 2026-04-27 02:10 | -31.32342 | -64.21021 | 1542 ft | 6 kts | 179° |
| 2026-04-27 02:10 | -31.32383 | -64.21020 | 1541 ft | 5 kts | 171° |
| 2026-04-27 02:11 | -31.32400 | -64.21014 | 1541 ft | 0 kts | 153° |
| 2026-04-27 02:12 | -31.32406 | -64.21010 | 1541 ft | 3 kts | 150° |
| 2026-04-27 02:12 | -31.32427 | -64.20990 | 1540 ft | 5 kts | 129° |
| 2026-04-27 02:12 | -31.32441 | -64.20930 | 1538 ft | 8 kts | 88° |
| 2026-04-27 02:12 | -31.32416 | -64.20866 | 1538 ft | 8 kts | 47° |
| 2026-04-27 02:13 | -31.32374 | -64.20814 | 1537 ft | 8 kts | 44° |
| 2026-04-27 02:13 | -31.32325 | -64.20760 | 1537 ft | 16 kts | 43° |
| 2026-04-27 02:13 | -31.32062 | -64.20458 | 1538 ft | 97 kts | 40° |
| 2026-04-27 02:13 | -31.31398 | -64.19707 | 1547 ft | 163 kts | 43° |
| 2026-04-27 02:14 | -31.30489 | -64.18713 | 1817 ft | 186 kts | 36° |
| 2026-04-27 02:14 | -31.29617 | -64.17639 | 2373 ft | 183 kts | 78° |
| 2026-04-27 02:14 | -31.29811 | -64.16361 | 3056 ft | 159 kts | 137° |
| 2026-04-27 02:14 | -31.30624 | -64.15577 | 3757 ft | 154 kts | 148° |
| 2026-04-27 02:15 | -31.31522 | -64.14864 | 4326 ft | 160 kts | 152° |
| 2026-04-27 02:15 | -31.32495 | -64.14203 | 4951 ft | 164 kts | 156° |
| 2026-04-27 02:15 | -31.33514 | -64.13587 | 5384 ft | 168 kts | 158° |
| 2026-04-27 02:15 | -31.34568 | -64.13004 | 5833 ft | 168 kts | 161° |
| 2026-04-27 02:16 | -31.35663 | -64.12437 | 6230 ft | 173 kts | 162° |
| 2026-04-27 02:16 | -31.36767 | -64.11896 | 6664 ft | 174 kts | 163° |
| 2026-04-27 02:16 | -31.37898 | -64.11362 | 7096 ft | 176 kts | 165° |
| 2026-04-27 02:16 | -31.39055 | -64.10831 | 7494 ft | 180 kts | 166° |
| 2026-04-27 02:17 | -31.40215 | -64.10309 | 7927 ft | 181 kts | 167° |
| 2026-04-27 02:17 | -31.41407 | -64.09781 | 8341 ft | 184 kts | 167° |
| 2026-04-27 02:17 | -31.42615 | -64.09251 | 8746 ft | 186 kts | 168° |
| 2026-04-27 02:17 | -31.43828 | -64.08724 | 9146 ft | 189 kts | 167° |
| 2026-04-27 02:18 | -31.45020 | -64.08029 | 9570 ft | 196 kts | 155° |
| 2026-04-27 02:18 | -31.46156 | -64.07101 | 9945 ft | 202 kts | 153° |
| 2026-04-27 02:18 | -31.47307 | -64.06130 | 10374 ft | 203 kts | 153° |
| 2026-04-27 02:18 | -31.48458 | -64.05155 | 10791 ft | 204 kts | 153° |
| 2026-04-27 02:19 | -31.49654 | -64.04151 | 10903 ft | 224 kts | 153° |
| 2026-04-27 02:19 | -31.50959 | -64.03050 | 11126 ft | 236 kts | 151° |
| 2026-04-27 02:19 | -31.52308 | -64.01895 | 11515 ft | 240 kts | 152° |
| 2026-04-27 02:19 | -31.53668 | -64.00730 | 11947 ft | 242 kts | 151° |
| 2026-04-27 02:20 | -31.55020 | -63.99572 | 12329 ft | 246 kts | 152° |
| 2026-04-27 02:20 | -31.56401 | -63.98389 | 12778 ft | 246 kts | 152° |
| 2026-04-27 02:20 | -31.57800 | -63.97193 | 13138 ft | 250 kts | 152° |
| 2026-04-27 02:20 | -31.59200 | -63.95994 | 13569 ft | 251 kts | 152° |
| 2026-04-27 02:21 | -31.60594 | -63.94801 | 13976 ft | 251 kts | 152° |
| 2026-04-27 02:21 | -31.62018 | -63.93583 | 14359 ft | 252 kts | 152° |
| 2026-04-27 02:21 | -31.63448 | -63.92360 | 14691 ft | 256 kts | 153° |
| 2026-04-27 02:21 | -31.64873 | -63.91141 | 15033 ft | 258 kts | 153° |
| 2026-04-27 02:22 | -31.66325 | -63.89898 | 15405 ft | 259 kts | 153° |
| 2026-04-27 02:22 | -31.67789 | -63.88644 | 15769 ft | 259 kts | 153° |
| 2026-04-27 02:22 | -31.69256 | -63.87390 | 16083 ft | 261 kts | 153° |
| 2026-04-27 02:22 | -31.70721 | -63.86132 | 16412 ft | 264 kts | 153° |
| 2026-04-27 02:23 | -31.72195 | -63.84869 | 16759 ft | 263 kts | 154° |
| 2026-04-27 02:23 | -31.73690 | -63.83589 | 17032 ft | 264 kts | 154° |
| 2026-04-27 02:23 | -31.75182 | -63.82309 | 17324 ft | 267 kts | 154° |
| 2026-04-27 02:23 | -31.76674 | -63.81029 | 17631 ft | 268 kts | 154° |
| 2026-04-27 02:24 | -31.78186 | -63.79731 | 17931 ft | 269 kts | 154° |
| 2026-04-27 02:24 | -31.79708 | -63.78424 | 18240 ft | 269 kts | 154° |
| 2026-04-27 02:24 | -31.81235 | -63.77113 | 18498 ft | 271 kts | 154° |
| 2026-04-27 02:24 | -31.82749 | -63.75813 | 18746 ft | 273 kts | 155° |
| 2026-04-27 02:25 | -31.84285 | -63.74492 | 19024 ft | 273 kts | 155° |
| 2026-04-27 02:25 | -31.85828 | -63.73164 | 19279 ft | 275 kts | 155° |
| 2026-04-27 02:25 | -31.87356 | -63.71848 | 19593 ft | 273 kts | 154° |
| 2026-04-27 02:25 | -31.88894 | -63.70525 | 19814 ft | 275 kts | 155° |
| 2026-04-27 02:26 | -31.90436 | -63.69196 | 20100 ft | 274 kts | 155° |
| 2026-04-27 02:26 | -31.91987 | -63.67862 | 20305 ft | 276 kts | 154° |
| 2026-04-27 02:26 | -31.93518 | -63.66541 | 20547 ft | 275 kts | 155° |
| 2026-04-27 02:26 | -31.95071 | -63.65204 | 20698 ft | 279 kts | 155° |
| 2026-04-27 02:27 | -31.96636 | -63.63854 | 20951 ft | 277 kts | 155° |
| 2026-04-27 02:27 | -31.98208 | -63.62499 | 21116 ft | 279 kts | 155° |
| 2026-04-27 02:27 | -31.99770 | -63.61149 | 21293 ft | 281 kts | 155° |
| 2026-04-27 02:27 | -32.01345 | -63.59789 | 21530 ft | 280 kts | 155° |
| 2026-04-27 02:28 | -32.02906 | -63.58440 | 21712 ft | 281 kts | 156° |
| 2026-04-27 02:28 | -32.04577 | -63.57453 | 21816 ft | 257 kts | 181° |
| 2026-04-27 02:28 | -32.06235 | -63.57664 | 21893 ft | 229 kts | 211° |
| 2026-04-27 02:28 | -32.07673 | -63.58475 | 22051 ft | 226 kts | 215° |
| 2026-04-27 02:29 | -32.09074 | -63.59326 | 22157 ft | 230 kts | 216° |
| 2026-04-27 02:29 | -32.10484 | -63.60205 | 22387 ft | 228 kts | 216° |
| 2026-04-27 02:29 | -32.11871 | -63.61088 | 22559 ft | 227 kts | 216° |
| 2026-04-27 02:29 | -32.13261 | -63.61986 | 22666 ft | 229 kts | 216° |
| 2026-04-27 02:30 | -32.14663 | -63.62900 | 22810 ft | 230 kts | 217° |
| 2026-04-27 02:30 | -32.16061 | -63.63817 | 23012 ft | 229 kts | 216° |
| 2026-04-27 02:30 | -32.17455 | -63.64737 | 23155 ft | 230 kts | 216° |
| 2026-04-27 02:30 | -32.18856 | -63.65667 | 23282 ft | 231 kts | 217° |
| 2026-04-27 02:31 | -32.20248 | -63.66594 | 23377 ft | 232 kts | 217° |
| 2026-04-27 02:31 | -32.21654 | -63.67532 | 23502 ft | 233 kts | 216° |
| 2026-04-27 02:31 | -32.23067 | -63.68475 | 23651 ft | 233 kts | 216° |
| 2026-04-27 02:31 | -32.24484 | -63.69423 | 23757 ft | 233 kts | 216° |
| 2026-04-27 02:32 | -32.25898 | -63.70369 | 23895 ft | 234 kts | 217° |
| 2026-04-27 02:32 | -32.27311 | -63.71317 | 24021 ft | 234 kts | 216° |
| 2026-04-27 02:32 | -32.28727 | -63.72267 | 24130 ft | 234 kts | 216° |
| 2026-04-27 02:32 | -32.30142 | -63.73217 | 24224 ft | 236 kts | 216° |
| 2026-04-27 02:33 | -32.31581 | -63.74186 | 24238 ft | 239 kts | 216° |
| 2026-04-27 02:33 | -32.33038 | -63.75167 | 24239 ft | 244 kts | 216° |
| 2026-04-27 02:33 | -32.34537 | -63.76177 | 24242 ft | 249 kts | 216° |
| 2026-04-27 02:33 | -32.36046 | -63.77193 | 24243 ft | 254 kts | 216° |
| 2026-04-27 02:34 | -32.37600 | -63.78241 | 24245 ft | 259 kts | 216° |
| 2026-04-27 02:34 | -32.39185 | -63.79310 | 24243 ft | 264 kts | 215° |
| 2026-04-27 02:34 | -32.40798 | -63.80397 | 24243 ft | 268 kts | 215° |
| 2026-04-27 02:34 | -32.42413 | -63.81485 | 24248 ft | 272 kts | 215° |
| 2026-04-27 02:35 | -32.44073 | -63.82604 | 24248 ft | 275 kts | 215° |
| 2026-04-27 02:35 | -32.45747 | -63.83733 | 24249 ft | 278 kts | 215° |
| 2026-04-27 02:35 | -32.47440 | -63.84875 | 24250 ft | 280 kts | 215° |
| 2026-04-27 02:35 | -32.49132 | -63.86017 | 24247 ft | 283 kts | 215° |
| 2026-04-27 02:36 | -32.50854 | -63.87179 | 24246 ft | 285 kts | 215° |
| 2026-04-27 02:36 | -32.52593 | -63.88354 | 24247 ft | 286 kts | 215° |
| 2026-04-27 02:36 | -32.54307 | -63.89512 | 24243 ft | 287 kts | 215° |
| 2026-04-27 02:36 | -32.56047 | -63.90689 | 24241 ft | 288 kts | 214° |
| 2026-04-27 02:37 | -32.57797 | -63.91872 | 24242 ft | 289 kts | 214° |
| 2026-04-27 02:37 | -32.59553 | -63.93061 | 24244 ft | 289 kts | 215° |
| 2026-04-27 02:37 | -32.61282 | -63.94232 | 24244 ft | 289 kts | 214° |
| 2026-04-27 02:37 | -32.63040 | -63.95423 | 24236 ft | 290 kts | 214° |
| 2026-04-27 02:38 | -32.64797 | -63.96614 | 24238 ft | 290 kts | 214° |
| 2026-04-27 02:38 | -32.66555 | -63.97805 | 24237 ft | 290 kts | 214° |
| 2026-04-27 02:38 | -32.68315 | -63.98985 | 24237 ft | 290 kts | 214° |
| 2026-04-27 02:38 | -32.70078 | -64.00165 | 24239 ft | 291 kts | 214° |
| 2026-04-27 02:39 | -32.71819 | -64.01331 | 24238 ft | 291 kts | 214° |
| 2026-04-27 02:39 | -32.73584 | -64.02513 | 24237 ft | 291 kts | 214° |
| 2026-04-27 02:39 | -32.75347 | -64.03695 | 24237 ft | 291 kts | 214° |
| 2026-04-27 02:39 | -32.77115 | -64.04881 | 24235 ft | 291 kts | 214° |
| 2026-04-27 02:40 | -32.78882 | -64.06068 | 24240 ft | 291 kts | 214° |
| 2026-04-27 02:40 | -32.80644 | -64.07251 | 24237 ft | 291 kts | 214° |
| 2026-04-27 02:40 | -32.82415 | -64.08441 | 24236 ft | 291 kts | 214° |
| 2026-04-27 02:40 | -32.84184 | -64.09631 | 24240 ft | 291 kts | 213° |
| 2026-04-27 02:41 | -32.85925 | -64.10802 | 24238 ft | 291 kts | 213° |
| 2026-04-27 02:41 | -32.87683 | -64.11985 | 24240 ft | 290 kts | 213° |
| 2026-04-27 02:41 | -32.89441 | -64.13169 | 24248 ft | 290 kts | 214° |
| 2026-04-27 02:41 | -32.91203 | -64.14356 | 24246 ft | 290 kts | 213° |
| 2026-04-27 02:42 | -32.92960 | -64.15540 | 24245 ft | 290 kts | 214° |
| 2026-04-27 02:42 | -32.94717 | -64.16725 | 24248 ft | 290 kts | 214° |
| 2026-04-27 02:42 | -32.96470 | -64.17909 | 24247 ft | 290 kts | 213° |
| 2026-04-27 02:42 | -32.98228 | -64.19095 | 24248 ft | 290 kts | 214° |
| 2026-04-27 02:43 | -32.99981 | -64.20279 | 24250 ft | 290 kts | 213° |
| 2026-04-27 02:43 | -33.01737 | -64.21465 | 24245 ft | 290 kts | 213° |
| 2026-04-27 02:43 | -33.03502 | -64.22659 | 24244 ft | 290 kts | 213° |
| 2026-04-27 02:43 | -33.05255 | -64.23844 | 24243 ft | 290 kts | 213° |
| 2026-04-27 02:44 | -33.06992 | -64.25019 | 24243 ft | 290 kts | 214° |
| 2026-04-27 02:44 | -33.08729 | -64.26242 | 24234 ft | 288 kts | 218° |
| 2026-04-27 02:44 | -33.10085 | -64.27955 | 24267 ft | 283 kts | 234° |
| 2026-04-27 02:44 | -33.11207 | -64.29887 | 24254 ft | 284 kts | 235° |
| 2026-04-27 02:45 | -33.12321 | -64.31829 | 24246 ft | 284 kts | 235° |
| 2026-04-27 02:45 | -33.13428 | -64.33761 | 24248 ft | 285 kts | 235° |
| 2026-04-27 02:45 | -33.14550 | -64.35716 | 24247 ft | 285 kts | 235° |
| 2026-04-27 02:45 | -33.15676 | -64.37676 | 24246 ft | 285 kts | 235° |
| 2026-04-27 02:46 | -33.16799 | -64.39629 | 24250 ft | 285 kts | 235° |
| 2026-04-27 02:46 | -33.17911 | -64.41562 | 24250 ft | 285 kts | 235° |
| 2026-04-27 02:46 | -33.19038 | -64.43521 | 24256 ft | 285 kts | 235° |
| 2026-04-27 02:46 | -33.20163 | -64.45476 | 24260 ft | 285 kts | 235° |
| 2026-04-27 02:47 | -33.21285 | -64.47427 | 24263 ft | 285 kts | 235° |
| 2026-04-27 02:47 | -33.22410 | -64.49383 | 24258 ft | 286 kts | 235° |
| 2026-04-27 02:47 | -33.23537 | -64.51344 | 24259 ft | 286 kts | 235° |
| 2026-04-27 02:47 | -33.24652 | -64.53284 | 24258 ft | 286 kts | 235° |
| 2026-04-27 02:48 | -33.25783 | -64.55252 | 24252 ft | 286 kts | 234° |
| 2026-04-27 02:48 | -33.26910 | -64.57216 | 24256 ft | 286 kts | 235° |
| 2026-04-27 02:48 | -33.28027 | -64.59161 | 24261 ft | 286 kts | 235° |
| 2026-04-27 02:48 | -33.29153 | -64.61124 | 24259 ft | 286 kts | 235° |
| 2026-04-27 02:49 | -33.30280 | -64.63091 | 24250 ft | 286 kts | 235° |
| 2026-04-27 02:49 | -33.31405 | -64.65053 | 24253 ft | 286 kts | 235° |
| 2026-04-27 02:49 | -33.32531 | -64.67020 | 24256 ft | 286 kts | 235° |
| 2026-04-27 02:49 | -33.33656 | -64.68984 | 24254 ft | 287 kts | 235° |
| 2026-04-27 02:50 | -33.34783 | -64.70953 | 24253 ft | 287 kts | 235° |
| 2026-04-27 02:50 | -33.35897 | -64.72902 | 24257 ft | 287 kts | 235° |
| 2026-04-27 02:50 | -33.37028 | -64.74864 | 24252 ft | 287 kts | 233° |
| 2026-04-27 02:50 | -33.38479 | -64.76470 | 24260 ft | 288 kts | 215° |
| 2026-04-27 02:51 | -33.40243 | -64.77631 | 24249 ft | 290 kts | 212° |
| 2026-04-27 02:51 | -33.42036 | -64.78756 | 24249 ft | 290 kts | 212° |
| 2026-04-27 02:51 | -33.43840 | -64.79876 | 24248 ft | 290 kts | 211° |
| 2026-04-27 02:51 | -33.45637 | -64.80988 | 24251 ft | 291 kts | 211° |
| 2026-04-27 02:52 | -33.47433 | -64.82098 | 24256 ft | 291 kts | 211° |
| 2026-04-27 02:52 | -33.49212 | -64.83196 | 24259 ft | 291 kts | 211° |
| 2026-04-27 02:52 | -33.51014 | -64.84308 | 24259 ft | 291 kts | 211° |
| 2026-04-27 02:52 | -33.52819 | -64.85421 | 24264 ft | 290 kts | 211° |
| 2026-04-27 02:53 | -33.54621 | -64.86533 | 24267 ft | 290 kts | 211° |
| 2026-04-27 02:53 | -33.56422 | -64.87643 | 24265 ft | 291 kts | 211° |
| 2026-04-27 02:53 | -33.58201 | -64.88741 | 24270 ft | 290 kts | 211° |
| 2026-04-27 02:53 | -33.60007 | -64.89854 | 24268 ft | 290 kts | 211° |
| 2026-04-27 02:54 | -33.61806 | -64.90964 | 24262 ft | 290 kts | 211° |
| 2026-04-27 02:54 | -33.63603 | -64.92074 | 24264 ft | 290 kts | 211° |
| 2026-04-27 02:54 | -33.65380 | -64.93171 | 24267 ft | 290 kts | 211° |
| 2026-04-27 02:54 | -33.67186 | -64.94287 | 24269 ft | 289 kts | 211° |
| 2026-04-27 02:55 | -33.68977 | -64.95394 | 24273 ft | 289 kts | 211° |
| 2026-04-27 02:55 | -33.70755 | -64.96493 | 24277 ft | 289 kts | 211° |
| 2026-04-27 02:55 | -33.72547 | -64.97602 | 24277 ft | 289 kts | 211° |
| 2026-04-27 02:55 | -33.74340 | -64.98711 | 24279 ft | 288 kts | 211° |
| 2026-04-27 02:56 | -33.76129 | -64.99819 | 24283 ft | 288 kts | 211° |
| 2026-04-27 02:56 | -33.77890 | -65.00910 | 24281 ft | 288 kts | 211° |
| 2026-04-27 02:56 | -33.79678 | -65.02019 | 24280 ft | 288 kts | 211° |
| 2026-04-27 02:56 | -33.81465 | -65.03127 | 24279 ft | 288 kts | 211° |
| 2026-04-27 02:57 | -33.83246 | -65.04231 | 24279 ft | 288 kts | 211° |
| 2026-04-27 02:57 | -33.85004 | -65.05323 | 24285 ft | 287 kts | 211° |
| 2026-04-27 02:57 | -33.86792 | -65.06433 | 24287 ft | 287 kts | 211° |
| 2026-04-27 02:57 | -33.88579 | -65.07543 | 24284 ft | 287 kts | 211° |
| 2026-04-27 02:58 | -33.90357 | -65.08648 | 24282 ft | 287 kts | 211° |
| 2026-04-27 02:58 | -33.92108 | -65.09737 | 24284 ft | 287 kts | 211° |
| 2026-04-27 02:58 | -33.93882 | -65.10840 | 24282 ft | 287 kts | 211° |
| 2026-04-27 02:58 | -33.95659 | -65.11947 | 24282 ft | 286 kts | 211° |
| 2026-04-27 02:59 | -33.97426 | -65.13047 | 24283 ft | 286 kts | 211° |
| 2026-04-27 02:59 | -33.99191 | -65.14146 | 24281 ft | 286 kts | 211° |
| 2026-04-27 02:59 | -34.00962 | -65.15250 | 24280 ft | 285 kts | 211° |
| 2026-04-27 02:59 | -34.02725 | -65.16349 | 24278 ft | 285 kts | 211° |
| 2026-04-27 03:00 | -34.04489 | -65.17450 | 24279 ft | 285 kts | 211° |
| 2026-04-27 03:00 | -34.06251 | -65.18550 | 24279 ft | 285 kts | 211° |
| 2026-04-27 03:00 | -34.08011 | -65.19649 | 24279 ft | 285 kts | 211° |
| 2026-04-27 03:00 | -34.09768 | -65.20747 | 24276 ft | 285 kts | 211° |
| 2026-04-27 03:01 | -34.11529 | -65.21847 | 24276 ft | 286 kts | 211° |
| 2026-04-27 03:01 | -34.13300 | -65.22956 | 24278 ft | 286 kts | 211° |
| 2026-04-27 03:01 | -34.15071 | -65.24064 | 24276 ft | 287 kts | 211° |
| 2026-04-27 03:01 | -34.16846 | -65.25175 | 24274 ft | 287 kts | 211° |
| 2026-04-27 03:02 | -34.18621 | -65.26287 | 24273 ft | 288 kts | 211° |
| 2026-04-27 03:02 | -34.20403 | -65.27403 | 24273 ft | 288 kts | 211° |
| 2026-04-27 03:02 | -34.22180 | -65.28517 | 24268 ft | 288 kts | 211° |
| 2026-04-27 03:02 | -34.23957 | -65.29631 | 24271 ft | 288 kts | 211° |
| 2026-04-27 03:03 | -34.25742 | -65.30751 | 24270 ft | 288 kts | 211° |
| 2026-04-27 03:03 | -34.29299 | -65.32985 | 24269 ft | 288 kts | 211° |
| 2026-04-27 03:03 | -34.31075 | -65.34100 | 24270 ft | 288 kts | 211° |
| 2026-04-27 03:04 | -34.32853 | -65.35218 | 24269 ft | 288 kts | 211° |
| 2026-04-27 03:04 | -34.34638 | -65.36340 | 24265 ft | 288 kts | 211° |
| 2026-04-27 03:04 | -34.36419 | -65.37461 | 24269 ft | 288 kts | 211° |
| 2026-04-27 03:04 | -34.38177 | -65.38568 | 24273 ft | 288 kts | 211° |
| 2026-04-27 03:05 | -34.39957 | -65.39689 | 24271 ft | 288 kts | 210° |
| 2026-04-27 03:05 | -34.41730 | -65.40807 | 24265 ft | 288 kts | 211° |
| 2026-04-27 03:05 | -34.43509 | -65.41928 | 24264 ft | 288 kts | 211° |
| 2026-04-27 03:05 | -34.45288 | -65.43050 | 24269 ft | 288 kts | 211° |
| 2026-04-27 03:06 | -34.47066 | -65.44173 | 24272 ft | 288 kts | 210° |
| 2026-04-27 03:06 | -34.48842 | -65.45293 | 24269 ft | 288 kts | 210° |
| 2026-04-27 03:06 | -34.50614 | -65.46413 | 24260 ft | 288 kts | 211° |
| 2026-04-27 03:06 | -34.52396 | -65.47540 | 24262 ft | 288 kts | 210° |
| 2026-04-27 03:07 | -34.54173 | -65.48663 | 24259 ft | 288 kts | 210° |
| 2026-04-27 03:07 | -34.55954 | -65.49789 | 24264 ft | 288 kts | 210° |
| 2026-04-27 03:07 | -34.57733 | -65.50916 | 24262 ft | 289 kts | 211° |
| 2026-04-27 03:07 | -34.59510 | -65.52040 | 24263 ft | 289 kts | 211° |
| 2026-04-27 03:08 | -34.61294 | -65.53171 | 24264 ft | 289 kts | 211° |
| 2026-04-27 03:08 | -34.63084 | -65.54305 | 24268 ft | 289 kts | 210° |
| 2026-04-27 03:08 | -34.64868 | -65.55437 | 24266 ft | 289 kts | 211° |
| 2026-04-27 03:08 | -34.66656 | -65.56571 | 24262 ft | 290 kts | 210° |
| 2026-04-27 03:09 | -34.68438 | -65.57703 | 24259 ft | 290 kts | 210° |
| 2026-04-27 03:09 | -34.70232 | -65.58842 | 24262 ft | 290 kts | 210° |
| 2026-04-27 03:09 | -34.72023 | -65.59980 | 24263 ft | 290 kts | 210° |
| 2026-04-27 03:09 | -34.73790 | -65.61103 | 24258 ft | 290 kts | 210° |
| 2026-04-27 03:10 | -34.75579 | -65.62241 | 24258 ft | 290 kts | 210° |
| 2026-04-27 03:10 | -34.77379 | -65.63387 | 24256 ft | 290 kts | 210° |
| 2026-04-27 03:10 | -34.79172 | -65.64528 | 24258 ft | 290 kts | 210° |
| 2026-04-27 03:10 | -34.80966 | -65.65671 | 24259 ft | 290 kts | 211° |
| 2026-04-27 03:11 | -34.82757 | -65.66811 | 24253 ft | 290 kts | 211° |
| 2026-04-27 03:11 | -34.84549 | -65.67955 | 24255 ft | 291 kts | 211° |
| 2026-04-27 03:11 | -34.86336 | -65.69094 | 24256 ft | 291 kts | 211° |
| 2026-04-27 03:11 | -34.88128 | -65.70238 | 24251 ft | 291 kts | 211° |
| 2026-04-27 03:12 | -34.89922 | -65.71384 | 24255 ft | 291 kts | 211° |
| 2026-04-27 03:12 | -34.91717 | -65.72530 | 24255 ft | 291 kts | 211° |
| 2026-04-27 03:12 | -34.93516 | -65.73680 | 24256 ft | 291 kts | 211° |
| 2026-04-27 03:12 | -34.95311 | -65.74828 | 24254 ft | 291 kts | 211° |
| 2026-04-27 03:13 | -34.97106 | -65.75977 | 24257 ft | 292 kts | 211° |
| 2026-04-27 03:13 | -34.98902 | -65.77126 | 24258 ft | 292 kts | 211° |
| 2026-04-27 03:13 | -35.00700 | -65.78278 | 24255 ft | 292 kts | 211° |
| 2026-04-27 03:13 | -35.02501 | -65.79432 | 24248 ft | 292 kts | 211° |
| 2026-04-27 03:14 | -35.04301 | -65.80586 | 24249 ft | 292 kts | 211° |
| 2026-04-27 03:14 | -35.06096 | -65.81737 | 24254 ft | 292 kts | 210° |
| 2026-04-27 03:14 | -35.07876 | -65.82880 | 24254 ft | 292 kts | 211° |
| 2026-04-27 03:14 | -35.09675 | -65.84035 | 24253 ft | 292 kts | 210° |
| 2026-04-27 03:15 | -35.11480 | -65.85194 | 24252 ft | 293 kts | 210° |
| 2026-04-27 03:15 | -35.13282 | -65.86352 | 24253 ft | 293 kts | 211° |
| 2026-04-27 03:15 | -35.15085 | -65.87512 | 24252 ft | 293 kts | 210° |
| 2026-04-27 03:15 | -35.16895 | -65.88676 | 24248 ft | 294 kts | 210° |
| 2026-04-27 03:16 | -35.18702 | -65.89839 | 24248 ft | 294 kts | 211° |
| 2026-04-27 03:16 | -35.20509 | -65.91003 | 24249 ft | 294 kts | 211° |
| 2026-04-27 03:16 | -35.22323 | -65.92172 | 24253 ft | 294 kts | 210° |
| 2026-04-27 03:16 | -35.24130 | -65.93336 | 24252 ft | 294 kts | 210° |
| 2026-04-27 03:17 | -35.25939 | -65.94503 | 24251 ft | 294 kts | 211° |
| 2026-04-27 03:17 | -35.27754 | -65.95674 | 24250 ft | 294 kts | 210° |
| 2026-04-27 03:17 | -35.29572 | -65.96848 | 24249 ft | 294 kts | 210° |
| 2026-04-27 03:17 | -35.31382 | -65.98017 | 24253 ft | 294 kts | 211° |
| 2026-04-27 03:18 | -35.33194 | -65.99189 | 24250 ft | 294 kts | 210° |
| 2026-04-27 03:18 | -35.35007 | -66.00361 | 24247 ft | 295 kts | 210° |
| 2026-04-27 03:18 | -35.36834 | -66.01543 | 24249 ft | 295 kts | 210° |
| 2026-04-27 03:18 | -35.38627 | -66.02704 | 24250 ft | 295 kts | 210° |
| 2026-04-27 03:19 | -35.40442 | -66.03879 | 24249 ft | 294 kts | 210° |
| 2026-04-27 03:19 | -35.42249 | -66.05050 | 24250 ft | 294 kts | 210° |
| 2026-04-27 03:19 | -35.44064 | -66.06226 | 24249 ft | 294 kts | 210° |
| 2026-04-27 03:19 | -35.45878 | -66.07403 | 24247 ft | 295 kts | 210° |
| 2026-04-27 03:20 | -35.47685 | -66.08575 | 24253 ft | 295 kts | 210° |
| 2026-04-27 03:20 | -35.49500 | -66.09753 | 24251 ft | 295 kts | 210° |
| 2026-04-27 03:20 | -35.51320 | -66.10936 | 24252 ft | 295 kts | 210° |
| 2026-04-27 03:20 | -35.53136 | -66.12117 | 24248 ft | 295 kts | 210° |
| 2026-04-27 03:21 | -35.54950 | -66.13296 | 24248 ft | 295 kts | 210° |
| 2026-04-27 03:21 | -35.56746 | -66.14465 | 24249 ft | 295 kts | 210° |
| 2026-04-27 03:21 | -35.58568 | -66.15651 | 24243 ft | 295 kts | 210° |
| 2026-04-27 03:21 | -35.60388 | -66.16836 | 24242 ft | 295 kts | 210° |
| 2026-04-27 03:22 | -35.62208 | -66.18022 | 24242 ft | 295 kts | 210° |
| 2026-04-27 03:22 | -35.64010 | -66.19196 | 24244 ft | 295 kts | 210° |
| 2026-04-27 03:22 | -35.65828 | -66.20383 | 24243 ft | 295 kts | 210° |
| 2026-04-27 03:22 | -35.67643 | -66.21567 | 24242 ft | 295 kts | 210° |
| 2026-04-27 03:23 | -35.69458 | -66.22752 | 24241 ft | 295 kts | 210° |
| 2026-04-27 03:23 | -35.71274 | -66.23939 | 24243 ft | 295 kts | 210° |
| 2026-04-27 03:23 | -35.73086 | -66.25123 | 24241 ft | 295 kts | 210° |
| 2026-04-27 03:23 | -35.74882 | -66.26299 | 24237 ft | 295 kts | 210° |
| 2026-04-27 03:24 | -35.76694 | -66.27484 | 24239 ft | 295 kts | 210° |
| 2026-04-27 03:24 | -35.78507 | -66.28670 | 24238 ft | 295 kts | 210° |
| 2026-04-27 03:24 | -35.80320 | -66.29858 | 24238 ft | 294 kts | 210° |
| 2026-04-27 03:24 | -35.82134 | -66.31047 | 24239 ft | 294 kts | 210° |
| 2026-04-27 03:25 | -35.83946 | -66.32234 | 24241 ft | 294 kts | 210° |
| 2026-04-27 03:25 | -35.85732 | -66.33407 | 24243 ft | 294 kts | 210° |
| 2026-04-27 03:25 | -35.87535 | -66.34590 | 24241 ft | 294 kts | 210° |
| 2026-04-27 03:25 | -35.89348 | -66.35780 | 24240 ft | 294 kts | 210° |
| 2026-04-27 03:26 | -35.91159 | -66.36970 | 24240 ft | 295 kts | 210° |
| 2026-04-27 03:26 | -35.92977 | -66.38166 | 24241 ft | 295 kts | 210° |
| 2026-04-27 03:26 | -35.94793 | -66.39361 | 24243 ft | 295 kts | 210° |
| 2026-04-27 03:26 | -35.96579 | -66.40536 | 24241 ft | 295 kts | 210° |
| 2026-04-27 03:27 | -35.98389 | -66.41727 | 24241 ft | 295 kts | 210° |
| 2026-04-27 03:27 | -36.00204 | -66.42924 | 24239 ft | 295 kts | 210° |
| 2026-04-27 03:27 | -36.02012 | -66.44115 | 24232 ft | 295 kts | 210° |
| 2026-04-27 03:27 | -36.03837 | -66.45319 | 24230 ft | 295 kts | 209° |
| 2026-04-27 03:28 | -36.05654 | -66.46518 | 24227 ft | 295 kts | 210° |
| 2026-04-27 03:28 | -36.07450 | -66.47704 | 24229 ft | 295 kts | 209° |
| 2026-04-27 03:28 | -36.09274 | -66.48908 | 24240 ft | 295 kts | 210° |
| 2026-04-27 03:28 | -36.11068 | -66.50094 | 24247 ft | 295 kts | 210° |
| 2026-04-27 03:29 | -36.12886 | -66.51296 | 24248 ft | 296 kts | 210° |
| 2026-04-27 03:29 | -36.14704 | -66.52499 | 24249 ft | 296 kts | 210° |
| 2026-04-27 03:29 | -36.16509 | -66.53693 | 24245 ft | 296 kts | 210° |
| 2026-04-27 03:29 | -36.18337 | -66.54904 | 24245 ft | 296 kts | 210° |
| 2026-04-27 03:30 | -36.20158 | -66.56111 | 24240 ft | 296 kts | 210° |
| 2026-04-27 03:30 | -36.21984 | -66.57321 | 24239 ft | 297 kts | 210° |
| 2026-04-27 03:30 | -36.23785 | -66.58516 | 24243 ft | 296 kts | 209° |
| 2026-04-27 03:30 | -36.25606 | -66.59725 | 24248 ft | 296 kts | 210° |
| 2026-04-27 03:31 | -36.27427 | -66.60934 | 24246 ft | 297 kts | 209° |
| 2026-04-27 03:31 | -36.29246 | -66.62142 | 24246 ft | 297 kts | 210° |
| 2026-04-27 03:31 | -36.31070 | -66.63355 | 24246 ft | 297 kts | 210° |
| 2026-04-27 03:31 | -36.32895 | -66.64568 | 24248 ft | 297 kts | 210° |
| 2026-04-27 03:32 | -36.34720 | -66.65783 | 24249 ft | 297 kts | 210° |
| 2026-04-27 03:32 | -36.36542 | -66.66996 | 24249 ft | 298 kts | 210° |
| 2026-04-27 03:32 | -36.38344 | -66.68197 | 24248 ft | 298 kts | 210° |
| 2026-04-27 03:32 | -36.40194 | -66.69430 | 24248 ft | 298 kts | 210° |
| 2026-04-27 03:33 | -36.42004 | -66.70637 | 24248 ft | 298 kts | 210° |
| 2026-04-27 03:33 | -36.43839 | -66.71861 | 24246 ft | 299 kts | 210° |
| 2026-04-27 03:33 | -36.45665 | -66.73080 | 24249 ft | 298 kts | 210° |
| 2026-04-27 03:33 | -36.47501 | -66.74307 | 24249 ft | 299 kts | 210° |
| 2026-04-27 03:34 | -36.49327 | -66.75527 | 24244 ft | 299 kts | 210° |
| 2026-04-27 03:34 | -36.51160 | -66.76753 | 24241 ft | 299 kts | 210° |
| 2026-04-27 03:34 | -36.52986 | -66.77974 | 24239 ft | 298 kts | 210° |
| 2026-04-27 03:34 | -36.54814 | -66.79198 | 24249 ft | 298 kts | 210° |
| 2026-04-27 03:35 | -36.56643 | -66.80423 | 24249 ft | 299 kts | 210° |
| 2026-04-27 03:35 | -36.58473 | -66.81649 | 24246 ft | 299 kts | 210° |
| 2026-04-27 03:35 | -36.60284 | -66.82864 | 24244 ft | 299 kts | 210° |
| 2026-04-27 03:35 | -36.62124 | -66.84098 | 24246 ft | 299 kts | 210° |
| 2026-04-27 03:36 | -36.63948 | -66.85323 | 24249 ft | 299 kts | 210° |
| 2026-04-27 03:36 | -36.65785 | -66.86556 | 24241 ft | 299 kts | 210° |
| 2026-04-27 03:36 | -36.67615 | -66.87785 | 24244 ft | 299 kts | 210° |
| 2026-04-27 03:36 | -36.69449 | -66.89018 | 24248 ft | 299 kts | 210° |
| 2026-04-27 03:37 | -36.71258 | -66.90235 | 24242 ft | 299 kts | 210° |
| 2026-04-27 03:37 | -36.73093 | -66.91470 | 24240 ft | 298 kts | 210° |
| 2026-04-27 03:37 | -36.74916 | -66.92699 | 24237 ft | 298 kts | 210° |
| 2026-04-27 03:37 | -36.76746 | -66.93931 | 24242 ft | 298 kts | 210° |
| 2026-04-27 03:38 | -36.78571 | -66.95161 | 24239 ft | 298 kts | 210° |
| 2026-04-27 03:38 | -36.80394 | -66.96391 | 24232 ft | 298 kts | 210° |
| 2026-04-27 03:38 | -36.82218 | -66.97622 | 24239 ft | 298 kts | 210° |
| 2026-04-27 03:38 | -36.84047 | -66.98857 | 24238 ft | 298 kts | 210° |
| 2026-04-27 03:39 | -36.85854 | -67.00078 | 24237 ft | 298 kts | 210° |
| 2026-04-27 03:39 | -36.87681 | -67.01313 | 24236 ft | 298 kts | 210° |
| 2026-04-27 03:39 | -36.89502 | -67.02541 | 24238 ft | 298 kts | 209° |
| 2026-04-27 03:39 | -36.91384 | -67.03648 | 24236 ft | 298 kts | 205° |
| 2026-04-27 03:40 | -36.93298 | -67.04665 | 24239 ft | 298 kts | 205° |
| 2026-04-27 03:40 | -36.95209 | -67.05679 | 24243 ft | 298 kts | 205° |
| 2026-04-27 03:40 | -36.97118 | -67.06692 | 24237 ft | 298 kts | 205° |
| 2026-04-27 03:40 | -36.99007 | -67.07696 | 24238 ft | 298 kts | 205° |
| 2026-04-27 03:41 | -37.00917 | -67.08714 | 24237 ft | 298 kts | 205° |
| 2026-04-27 03:41 | -37.02826 | -67.09731 | 24239 ft | 298 kts | 205° |
| 2026-04-27 03:41 | -37.04740 | -67.10754 | 24236 ft | 298 kts | 205° |
| 2026-04-27 03:41 | -37.06656 | -67.11778 | 24233 ft | 298 kts | 205° |
| 2026-04-27 03:42 | -37.08560 | -67.12797 | 24235 ft | 298 kts | 205° |
| 2026-04-27 03:42 | -37.10463 | -67.13816 | 24238 ft | 298 kts | 205° |
| 2026-04-27 03:42 | -37.12368 | -67.14838 | 24234 ft | 298 kts | 205° |
| 2026-04-27 03:42 | -37.14273 | -67.15859 | 24238 ft | 298 kts | 205° |
| 2026-04-27 03:43 | -37.16162 | -67.16873 | 24235 ft | 298 kts | 205° |
| 2026-04-27 03:43 | -37.18068 | -67.17896 | 24233 ft | 299 kts | 205° |
| 2026-04-27 03:43 | -37.19979 | -67.18923 | 24238 ft | 298 kts | 205° |
| 2026-04-27 03:43 | -37.21890 | -67.19951 | 24241 ft | 298 kts | 205° |
| 2026-04-27 03:44 | -37.23798 | -67.20977 | 24238 ft | 298 kts | 205° |
| 2026-04-27 03:44 | -37.25720 | -67.22011 | 24236 ft | 298 kts | 205° |
| 2026-04-27 03:44 | -37.27609 | -67.23029 | 24234 ft | 299 kts | 205° |
| 2026-04-27 03:44 | -37.29514 | -67.24056 | 24232 ft | 298 kts | 205° |
| 2026-04-27 03:45 | -37.31419 | -67.25082 | 24231 ft | 299 kts | 205° |
| 2026-04-27 03:45 | -37.33330 | -67.26114 | 24232 ft | 298 kts | 205° |
| 2026-04-27 03:45 | -37.35241 | -67.27145 | 24235 ft | 298 kts | 205° |
| 2026-04-27 03:45 | -37.37164 | -67.28184 | 24233 ft | 298 kts | 205° |
| 2026-04-27 03:46 | -37.39059 | -67.29208 | 24231 ft | 298 kts | 205° |
| 2026-04-27 03:46 | -37.40971 | -67.30241 | 24234 ft | 299 kts | 205° |
| 2026-04-27 03:46 | -37.42881 | -67.31274 | 24233 ft | 298 kts | 205° |
| 2026-04-27 03:46 | -37.44791 | -67.32309 | 24230 ft | 298 kts | 205° |
| 2026-04-27 03:47 | -37.46698 | -67.33341 | 24231 ft | 298 kts | 205° |
| 2026-04-27 03:47 | -37.48606 | -67.34375 | 24229 ft | 298 kts | 205° |
| 2026-04-27 03:47 | -37.50512 | -67.35409 | 24231 ft | 298 kts | 205° |
| 2026-04-27 03:47 | -37.52419 | -67.36443 | 24230 ft | 298 kts | 205° |
| 2026-04-27 03:48 | -37.54302 | -67.37466 | 24228 ft | 298 kts | 205° |
| 2026-04-27 03:48 | -37.56222 | -67.38509 | 24230 ft | 297 kts | 205° |
| 2026-04-27 03:48 | -37.58105 | -67.39532 | 24228 ft | 297 kts | 205° |
| 2026-04-27 03:48 | -37.60005 | -67.40565 | 24231 ft | 297 kts | 204° |
| 2026-04-27 03:49 | -37.61911 | -67.41602 | 24230 ft | 297 kts | 205° |
| 2026-04-27 03:49 | -37.63809 | -67.42635 | 24225 ft | 297 kts | 205° |
| 2026-04-27 03:49 | -37.65705 | -67.43668 | 24223 ft | 297 kts | 204° |
| 2026-04-27 03:49 | -37.67598 | -67.44698 | 24217 ft | 297 kts | 205° |
| 2026-04-27 03:50 | -37.69492 | -67.45731 | 24215 ft | 297 kts | 205° |
| 2026-04-27 03:50 | -37.71392 | -67.46768 | 24215 ft | 297 kts | 205° |
| 2026-04-27 03:50 | -37.73292 | -67.47805 | 24215 ft | 297 kts | 205° |
| 2026-04-27 03:50 | -37.75187 | -67.48840 | 24214 ft | 297 kts | 205° |
| 2026-04-27 03:51 | -37.77087 | -67.49878 | 24215 ft | 297 kts | 205° |
| 2026-04-27 03:51 | -37.78980 | -67.50913 | 24217 ft | 297 kts | 205° |
| 2026-04-27 03:51 | -37.80873 | -67.51949 | 24214 ft | 297 kts | 205° |
| 2026-04-27 03:51 | -37.82776 | -67.52990 | 24210 ft | 297 kts | 205° |
| 2026-04-27 03:52 | -37.84669 | -67.54028 | 24212 ft | 297 kts | 205° |
| 2026-04-27 03:52 | -37.86565 | -67.55066 | 24217 ft | 297 kts | 205° |
| 2026-04-27 03:52 | -37.88462 | -67.56107 | 24219 ft | 297 kts | 205° |
| 2026-04-27 03:52 | -37.90357 | -67.57146 | 24217 ft | 296 kts | 205° |
| 2026-04-27 03:53 | -37.92226 | -67.58172 | 24212 ft | 295 kts | 205° |
| 2026-04-27 03:53 | -37.94074 | -67.59184 | 24202 ft | 283 kts | 205° |
| 2026-04-27 03:53 | -37.95870 | -67.60165 | 23994 ft | 278 kts | 205° |
| 2026-04-27 03:53 | -37.97647 | -67.61139 | 23635 ft | 278 kts | 205° |
| 2026-04-27 03:54 | -37.99421 | -67.62112 | 23233 ft | 279 kts | 205° |
| 2026-04-27 03:54 | -38.01189 | -67.63084 | 22808 ft | 278 kts | 205° |
| 2026-04-27 03:54 | -38.02958 | -67.64056 | 22375 ft | 277 kts | 205° |
| 2026-04-27 03:54 | -38.04725 | -67.65028 | 21941 ft | 277 kts | 205° |
| 2026-04-27 03:55 | -38.06495 | -67.66003 | 21503 ft | 277 kts | 205° |
| 2026-04-27 03:55 | -38.08260 | -67.66976 | 21068 ft | 276 kts | 206° |
| 2026-04-27 03:55 | -38.10001 | -67.67937 | 20639 ft | 275 kts | 205° |
| 2026-04-27 03:55 | -38.11755 | -67.68903 | 20201 ft | 272 kts | 205° |
| 2026-04-27 03:56 | -38.13479 | -67.69852 | 19769 ft | 267 kts | 205° |
| 2026-04-27 03:56 | -38.15169 | -67.70783 | 19352 ft | 262 kts | 205° |
| 2026-04-27 03:56 | -38.16809 | -67.71689 | 18945 ft | 257 kts | 205° |
| 2026-04-27 03:56 | -38.18438 | -67.72588 | 18546 ft | 252 kts | 205° |
| 2026-04-27 03:57 | -38.20025 | -67.73464 | 18150 ft | 246 kts | 205° |
| 2026-04-27 03:57 | -38.21578 | -67.74322 | 17765 ft | 240 kts | 205° |
| 2026-04-27 03:57 | -38.23085 | -67.75156 | 17391 ft | 234 kts | 205° |
| 2026-04-27 03:57 | -38.24567 | -67.75976 | 17026 ft | 228 kts | 205° |
| 2026-04-27 03:58 | -38.26010 | -67.76775 | 16670 ft | 222 kts | 205° |
| 2026-04-27 03:58 | -38.27389 | -67.77538 | 16325 ft | 216 kts | 205° |
| 2026-04-27 03:58 | -38.28748 | -67.78291 | 15984 ft | 209 kts | 205° |
| 2026-04-27 03:58 | -38.30063 | -67.79021 | 15656 ft | 202 kts | 205° |
| 2026-04-27 03:59 | -38.31321 | -67.79720 | 15345 ft | 196 kts | 205° |
| 2026-04-27 03:59 | -38.32560 | -67.80409 | 15035 ft | 191 kts | 205° |
| 2026-04-27 03:59 | -38.33772 | -67.81085 | 14734 ft | 189 kts | 205° |
| 2026-04-27 03:59 | -38.34960 | -67.81749 | 14442 ft | 188 kts | 205° |
| 2026-04-27 04:00 | -38.36169 | -67.82424 | 14145 ft | 189 kts | 205° |
| 2026-04-27 04:00 | -38.37376 | -67.83099 | 13846 ft | 190 kts | 205° |
| 2026-04-27 04:00 | -38.38602 | -67.83785 | 13546 ft | 194 kts | 205° |
| 2026-04-27 04:00 | -38.39846 | -67.84481 | 13237 ft | 202 kts | 205° |
| 2026-04-27 04:01 | -38.41165 | -67.85220 | 12908 ft | 211 kts | 205° |
| 2026-04-27 04:01 | -38.42543 | -67.85992 | 12565 ft | 221 kts | 205° |
| 2026-04-27 04:01 | -38.43970 | -67.86790 | 12206 ft | 231 kts | 205° |
| 2026-04-27 04:01 | -38.45466 | -67.87625 | 11826 ft | 236 kts | 205° |
| 2026-04-27 04:02 | -38.46979 | -67.88466 | 11446 ft | 235 kts | 205° |
| 2026-04-27 04:02 | -38.48450 | -67.89282 | 11075 ft | 232 kts | 204° |
| 2026-04-27 04:02 | -38.49991 | -67.89822 | 10707 ft | 228 kts | 189° |
| 2026-04-27 04:02 | -38.51564 | -67.89947 | 10342 ft | 223 kts | 186° |
| 2026-04-27 04:03 | -38.53088 | -67.90035 | 9990 ft | 217 kts | 186° |
| 2026-04-27 04:03 | -38.54575 | -67.90123 | 9658 ft | 211 kts | 186° |
| 2026-04-27 04:03 | -38.56028 | -67.90210 | 9326 ft | 204 kts | 186° |
| 2026-04-27 04:03 | -38.57429 | -67.90296 | 8895 ft | 200 kts | 186° |
| 2026-04-27 04:04 | -38.58797 | -67.90382 | 8528 ft | 192 kts | 186° |
| 2026-04-27 04:04 | -38.60092 | -67.90466 | 8203 ft | 183 kts | 187° |
| 2026-04-27 04:04 | -38.61327 | -67.90545 | 7901 ft | 171 kts | 187° |
| 2026-04-27 04:04 | -38.62467 | -67.90617 | 7625 ft | 156 kts | 187° |
| 2026-04-27 04:05 | -38.63496 | -67.90682 | 7373 ft | 141 kts | 188° |
| 2026-04-27 04:05 | -38.64467 | -67.90756 | 7103 ft | 140 kts | 188° |
| 2026-04-27 04:05 | -38.65444 | -67.90834 | 6796 ft | 141 kts | 188° |
| 2026-04-27 04:05 | -38.66437 | -67.90913 | 6616 ft | 143 kts | 188° |
| 2026-04-27 04:06 | -38.67444 | -67.90994 | 6445 ft | 147 kts | 188° |
| 2026-04-27 04:06 | -38.68487 | -67.91074 | 6246 ft | 152 kts | 188° |
| 2026-04-27 04:06 | -38.69557 | -67.91152 | 6021 ft | 155 kts | 187° |
| 2026-04-27 04:07 | -38.71590 | -67.91286 | 5830 ft | 133 kts | 188° |
| 2026-04-27 04:07 | -38.72518 | -67.91354 | 5611 ft | 135 kts | 187° |
| 2026-04-27 04:07 | -38.73473 | -67.91430 | 5399 ft | 136 kts | 187° |
| 2026-04-27 04:07 | -38.74404 | -67.91501 | 5277 ft | 135 kts | 186° |
| 2026-04-27 04:08 | -38.75344 | -67.91572 | 5133 ft | 135 kts | 186° |
| 2026-04-27 04:08 | -38.76281 | -67.91642 | 5076 ft | 130 kts | 187° |
| 2026-04-27 04:08 | -38.77164 | -67.91711 | 5103 ft | 125 kts | 187° |
| 2026-04-27 04:08 | -38.78046 | -67.91782 | 5008 ft | 129 kts | 186° |
| 2026-04-27 04:09 | -38.78943 | -67.91861 | 5084 ft | 127 kts | 186° |
| 2026-04-27 04:09 | -38.79860 | -67.91938 | 5215 ft | 135 kts | 187° |
| 2026-04-27 04:09 | -38.80812 | -67.92005 | 5188 ft | 135 kts | 186° |
| 2026-04-27 04:09 | -38.81751 | -67.92075 | 5192 ft | 134 kts | 187° |
| 2026-04-27 04:10 | -38.82674 | -67.92144 | 5212 ft | 134 kts | 186° |
| 2026-04-27 04:10 | -38.83615 | -67.92213 | 5231 ft | 134 kts | 187° |
| 2026-04-27 04:10 | -38.84556 | -67.92281 | 5253 ft | 134 kts | 186° |
| 2026-04-27 04:10 | -38.85483 | -67.92346 | 5273 ft | 135 kts | 186° |
| 2026-04-27 04:11 | -38.86425 | -67.92409 | 5293 ft | 135 kts | 187° |
| 2026-04-27 04:11 | -38.87370 | -67.92471 | 5307 ft | 135 kts | 187° |
| 2026-04-27 04:11 | -38.88305 | -67.92534 | 5323 ft | 134 kts | 186° |
| 2026-04-27 04:11 | -38.89224 | -67.92595 | 5416 ft | 130 kts | 187° |
| 2026-04-27 04:12 | -38.90170 | -67.92664 | 5611 ft | 142 kts | 188° |
| 2026-04-27 04:12 | -38.91144 | -67.92723 | 5776 ft | 139 kts | 186° |
| 2026-04-27 04:12 | -38.92134 | -67.92773 | 5538 ft | 147 kts | 186° |
| 2026-04-27 04:12 | -38.93156 | -67.92960 | 5209 ft | 148 kts | 196° |
| 2026-04-27 04:13 | -38.94062 | -67.93462 | 4873 ft | 138 kts | 214° |
| 2026-04-27 04:13 | -38.94733 | -67.94342 | 4244 ft | 148 kts | 234° |
| 2026-04-27 04:13 | -38.95079 | -67.95562 | 3771 ft | 140 kts | 259° |
| 2026-04-27 04:13 | -38.95203 | -67.96752 | 3380 ft | 132 kts | 266° |
| 2026-04-27 04:14 | -38.95243 | -67.97920 | 2945 ft | 131 kts | 270° |
| 2026-04-27 04:14 | -38.95155 | -67.99063 | 2755 ft | 134 kts | 277° |
| 2026-04-27 04:14 | -38.95024 | -68.00266 | 2598 ft | 136 kts | 277° |
| 2026-04-27 04:14 | -38.94925 | -68.01465 | 2513 ft | 129 kts | 266° |
| 2026-04-27 04:15 | -38.94939 | -68.02599 | 2431 ft | 130 kts | 266° |
| 2026-04-27 04:15 | -38.94962 | -68.03790 | 2580 ft | 134 kts | 266° |
| 2026-04-27 04:15 | -38.94968 | -68.04997 | 2459 ft | 138 kts | 269° |
| 2026-04-27 04:15 | -38.94931 | -68.06223 | 2307 ft | 139 kts | 270° |
| 2026-04-27 04:16 | -38.94909 | -68.07471 | 2091 ft | 138 kts | 267° |
| 2026-04-27 04:16 | -38.94911 | -68.08680 | 1855 ft | 134 kts | 268° |
| 2026-04-27 04:16 | -38.94937 | -68.09861 | 1635 ft | 130 kts | 266° |
| 2026-04-27 04:16 | -38.94912 | -68.11027 | 1454 ft | 134 kts | 269° |
| 2026-04-27 04:17 | -38.94908 | -68.12227 | 1266 ft | 134 kts | 266° |
| 2026-04-27 04:17 | -38.94899 | -68.13409 | 1069 ft | 130 kts | 266° |
| 2026-04-27 04:17 | -38.94900 | -68.14526 | 902 ft | 117 kts | 267° |
| 2026-04-27 04:17 | -38.94899 | -68.15371 | 902 ft | 76 kts | 271° |
| 2026-04-27 04:18 | -38.94898 | -68.15952 | 902 ft | 55 kts | 271° |
| 2026-04-27 04:18 | -38.94894 | -68.16200 | 901 ft | 0 kts | 273° |
| 2026-04-27 04:18 | -38.94900 | -68.16206 | 901 ft | 1 kts | 175° |
| 2026-04-27 04:18 | -38.94906 | -68.16178 | 902 ft | 7 kts | 90° |
| 2026-04-27 04:19 | -38.94902 | -68.16067 | 902 ft | 17 kts | 87° |
| 2026-04-27 04:19 | -38.94900 | -68.15877 | 901 ft | 23 kts | 91° |
| 2026-04-27 04:19 | -38.94900 | -68.15694 | 902 ft | 18 kts | 89° |
| 2026-04-27 04:19 | -38.94900 | -68.15530 | 902 ft | 19 kts | 90° |
| 2026-04-27 04:20 | -38.94899 | -68.15337 | 902 ft | 23 kts | 88° |
| 2026-04-27 04:20 | -38.94905 | -68.15155 | 902 ft | 17 kts | 110° |
| 2026-04-27 04:20 | -38.94968 | -68.15049 | 902 ft | 6 kts | 135° |
| 2026-04-27 04:20 | -38.94969 | -68.15048 | 902 ft | 0 kts | 135° |
| 2026-04-27 04:21 | -38.94977 | -68.15037 | 902 ft | 4 kts | 135° |
| 2026-04-27 04:21 | -38.95006 | -68.15002 | 902 ft | 5 kts | 135° |
| 2026-04-27 04:21 | -38.95036 | -68.14964 | 902 ft | 5 kts | 136° |
| 2026-04-27 04:21 | -38.95063 | -68.14928 | 902 ft | 5 kts | 133° |
| 2026-04-27 04:22 | -38.95086 | -68.14886 | 902 ft | 5 kts | 110° |
| 2026-04-27 04:22 | -38.95090 | -68.14839 | 902 ft | 5 kts | 89° |
| 2026-04-27 04:22 | -38.95090 | -68.14796 | 902 ft | 4 kts | 91° |
| 2026-04-27 04:22 | -38.95091 | -68.14754 | 902 ft | 4 kts | 92° |
| 2026-04-27 04:23 | -38.95092 | -68.14716 | 902 ft | 4 kts | 92° |
| 2026-04-27 04:23 | -38.95093 | -68.14679 | 902 ft | 4 kts | 90° |
| 2026-04-27 04:23 | -38.95093 | -68.14639 | 902 ft | 5 kts | 90° |
| 2026-04-27 04:23 | -38.95093 | -68.14580 | 902 ft | 7 kts | 90° |
| 2026-04-27 04:24 | -38.95093 | -68.14507 | 902 ft | 8 kts | 89° |
| 2026-04-27 04:24 | -38.95093 | -68.14426 | 902 ft | 8 kts | 90° |
| 2026-04-27 04:24 | -38.95093 | -68.14356 | 902 ft | 7 kts | 90° |
| 2026-04-27 04:24 | -38.95093 | -68.14292 | 902 ft | 7 kts | 90° |
| 2026-04-27 04:25 | -38.95094 | -68.14230 | 902 ft | 6 kts | 90° |
| 2026-04-27 04:25 | -38.95094 | -68.14170 | 902 ft | 6 kts | 90° |
| 2026-04-27 04:25 | -38.95102 | -68.14116 | 902 ft | 5 kts | 146° |
| 2026-04-27 04:25 | -38.95141 | -68.14113 | 902 ft | 5 kts | 180° |
| 2026-04-27 04:26 | -38.95157 | -68.14113 | 902 ft | 0 kts | 179° |